x

Ne Bahamas - 350 Nm Ene Of Nassau, Bahamas (41047) Wave Buoy

6:50am - Sat 25th Oct 2014 All times are UTC.

  • Sig Wave height 5.2ft
  • Swell Direction
  • Peak Period 10s
  • Average Period 6s
  • Wind
    18mph, 20mph gusts
  • Sea Temp 81°f
  • Air Temp 75°f
  • Sea Pressure 1008.1mb

More Historic Weather Station data

Upgrade to MSW Pro to gain access to the past 30 days of data for over 8000 Wavebouys and Weather Stations around the globe.

Join Pro

Comparision Forecast

View Surf forecast
   
Sat 10/25 6:50am 5ft 10s 6s 18 20 mph 1008.1mb 81f 75f
5:50am 5.5ft 8s 7s 11 13 mph 1009.5mb 81f 75f
4:50am 6ft 10s 7s 9
mph
1010.1mb 81f 75f
3:50am 5.5ft 10s 7s 9 13 mph 1010.9mb 82f 74f
2:50am 6ft 10s 7s 13 18 mph 1011.5mb 82f 75f
1:50am 6ft 10s 6s 7 9 mph 1012.1mb 82f 75f
12:50am 6ft 10s 7s 16 18 mph 1011.4mb 82f 77f
Fri 10/24 11:50pm 6ft 10s 7s 16 18 mph 1011mb 82f 78f
10:50pm 6ft 10s 7s 18 22 mph 1011mb 82f 79f
9:50pm 5ft 10s 7s 18 20 mph 1011.1mb 82f 79f
8:50pm 5.5ft 10s 7s 16 18 mph 1011.3mb 82f 79f
7:50pm 5.5ft 11s 7s 16 18 mph 1011.7mb 82f 79f
6:50pm 5.5ft 11s 7s 13 18 mph 1012.1mb 82f 79f
5:50pm 6ft 11s 7s 13 18 mph 1012.6mb 82f 79f
4:50pm 6ft 11s 7s 13 16 mph 1013.5mb 82f 78f
3:50pm 6ft 11s 7s 13 16 mph 1014.3mb 82f 78f
2:50pm 6ft 11s 7s 13 16 mph 1014.6mb 82f 78f
1:50pm 6ft 11s 7s 13 16 mph 1014.6mb 82f 78f
12:50pm 6ft 11s 7s 13 18 mph 1014.3mb 82f 78f
11:50am 6ft 11s 7s 13 16 mph 1013.8mb 82f 78f
10:50am 5ft 11s 7s 13 18 mph 1013.1mb 82f 77f
9:50am 5.5ft 9s 6s 13 18 mph 1012.8mb 82f 77f
8:50am 5ft 8s 6s 13 18 mph 1012.6mb 82f 77f
7:50am 5ft 10s 6s 13 18 mph 1012.6mb 82f 77f
6:50am 5ft 9s 6s 16 20 mph 1012.8mb 82f 76f
5:50am 6ft 9s 6s 13 18 mph 1013.4mb 82f 76f
4:50am 5ft 9s 6s 18 20 mph 1013.4mb 82f 75f
3:50am 5ft 8s 6s 18 20 mph 1013.7mb 82f 75f
2:50am 4.5ft 7s 6s 16 20 mph 1013.6mb 82f 77f
1:50am 4.5ft 8s 6s 13 18 mph 1013.4mb 82f 76f
12:50am 4ft 7s 6s 16 25 mph 1013.3mb 82f 76f
Thu 10/23 11:50pm 4.5ft 8s 6s 11 13 mph 1013.3mb 82f 77f
10:50pm 3.5ft 8s 6s 2 4 mph 1013.2mb 82f 76f
9:50pm 4ft 8s 6s 2 4 mph 1012.9mb 82f 76f
8:50pm 3.5ft 8s 5s 4 9 mph 1013mb 82f 77f
7:50pm 3ft 9s 5s 7 11 mph 1012.8mb 82f 76f
6:50pm 3ft 9s 5s 7 9 mph 1012.7mb 82f 77f
5:50pm 3ft 9s 5s 9 11 mph 1012.7mb 82f 78f
4:50pm 3ft 8s 5s 13 16 mph 1013.3mb 82f 78f
3:50pm 2.5ft 9s 5s 11 13 mph 1013.7mb 82f 79f
2:50pm 2.5ft 9s 5s 9 11 mph 1013.8mb 82f 78f
1:50pm 2.5ft 10s 4s 9 11 mph 1013.9mb 82f 77f
12:50pm 2.5ft 9s 5s 2 4 mph 1013.6mb 81f 78f
11:50am 2.5ft 10s 5s 4 7 mph 1012.6mb 82f 77f
10:50am 2.5ft 10s 5s 9 13 mph 1012.6mb 82f 76f
9:50am 2.5ft 10s 5s 13 18 mph 1012.1mb 82f 78f
8:50am 3ft 10s 5s 13 16 mph 1011.5mb 82f 80f
7:50am 2.5ft 9s 5s 13 16 mph 1011.2mb 82f 80f
6:50am 2.5ft 9s 5s 13 16 mph 1011.5mb 82f 80f
5:50am 2.5ft 9s 5s 11 16 mph 1012.6mb 82f 80f
4:50am 2.5ft 8s 5s 13 16 mph 1013.2mb 82f 80f
3:50am 2.5ft 10s 5s 13 16 mph 1013.7mb 82f 80f
2:50am 2.5ft 9s 6s 11 13 mph 1014.1mb 82f 80f
1:50am 2.5ft 9s 6s 11 13 mph 1013.9mb 82f 80f
12:50am 2.5ft 9s 6s 11 13 mph 1013.6mb 82f 79f
Wed 10/22 11:50pm 2.5ft 9s 6s 11 13 mph 1013.2mb 82f 78f
10:50pm 2.5ft 9s 6s 11 13 mph 1013.2mb 82f 78f
9:50pm 2.5ft 9s 6s 7 9 mph 1013.2mb 82f 78f
8:50pm 2.5ft 10s 6s 4 7 mph 1013.2mb 82f 78f
7:50pm 3.5ft 10s 7s 4 7 mph 1013.1mb 82f 77f
6:50pm 3ft 9s 6s 9 11 mph 1013.8mb 82f 78f
5:50pm 2.5ft 9s 6s 9 11 mph 1014.4mb 82f 78f
4:50pm 3ft 10s 7s 9 11 mph 1014.7mb 82f 78f
3:50pm 3ft 10s 7s 9
mph
1015.1mb 82f 81f
2:50pm 3ft 10s 7s 9 11 mph 1015.7mb 82f 80f
1:50pm 3ft 10s 7s 11 13 mph 1015.3mb 82f 80f
12:50pm 3.5ft 10s 7s 9 11 mph 1015mb 82f 80f
11:50am 3.5ft 8s 7s 9 11 mph 1014.4mb 82f 80f
10:50am 3.5ft 9s 7s 9
mph
1014.3mb 82f 80f
9:50am 4ft 8s 7s 7 9 mph 1014.1mb 82f 80f
8:50am 3.5ft 8s 7s 7 9 mph 1013.7mb 82f 80f
7:50am 3.5ft 8s 7s 9 11 mph 1013.8mb 82f 80f
6:50am 4ft 8s 7s 9
mph
1014mb 82f 79f
5:50am 3.5ft 8s 7s 7
mph
1014.4mb 82f 79f
4:50am 3.5ft 9s 6s 4 7 mph 1014.9mb 82f 79f
3:50am 4ft 8s 7s 4
mph
1015.4mb 82f 79f
2:50am 4ft 10s 6s 2 4 mph 1015.8mb 82f 79f
1:50am 4.5ft 9s 7s  -  2 mph 1015.9mb 82f 79f
12:50am 4ft 9s 6s 2 4 mph 1015.3mb 82f 79f
Tue 10/21 11:50pm 4ft 9s 7s  -  2 mph 1015.1mb 82f 79f
10:50pm 4.5ft 9s 7s  -  2 mph 1014.7mb 83f 79f
9:50pm 4ft 9s 7s 2 4 mph 1014.4mb 83f 79f
8:50pm 4ft 8s 7s 7 9 mph 1014mb 83f 79f
7:50pm 4ft 9s 7s 2 4 mph 1013.8mb 83f 80f
5:50pm 3.5ft 9s 7s 7
mph
1014.4mb 83f 80f
4:50pm 4ft 9s 7s 4 9 mph 1015.3mb 83f 80f
3:50pm 4ft 9s 7s 4 7 mph 1016.3mb 82f 80f
2:50pm 4.5ft 9s 7s 7 9 mph 1016.8mb 82f 80f
1:50pm 4.5ft 9s 7s 7
mph
1016.9mb 82f 80f
12:50pm 5ft 9s 7s 7 9 mph 1016.6mb 82f 80f
11:50am 5ft 10s 7s 4 7 mph 1016.2mb 82f 80f
10:50am 5ft 9s 7s 4 7 mph 1015.5mb 82f 79f
9:50am 5ft 9s 7s 7 9 mph 1015.2mb 82f 78f
8:50am 5ft 9s 7s 7 9 mph 1015mb 82f 78f
7:50am 5ft 8s 7s 4 9 mph 1015.4mb 82f 79f